sensor_id;sensor_type;location;lat;lon;timestamp;P1;durP1;ratioP1;P2;durP2;ratioP2
11646;SDS011;5880;52.342;9.662;2023-02-01T00:00:22;8.70;;;2.27;;
11646;SDS011;5880;52.342;9.662;2023-02-01T00:02:48;10.30;;;2.50;;
11646;SDS011;5880;52.342;9.662;2023-02-01T00:05:14;9.67;;;2.50;;
11646;SDS011;5880;52.342;9.662;2023-02-01T00:07:40;8.93;;;2.20;;
11646;SDS011;5880;52.342;9.662;2023-02-01T00:10:05;6.23;;;2.03;;
11646;SDS011;5880;52.342;9.662;2023-02-01T00:12:32;7.70;;;2.43;;
11646;SDS011;5880;52.342;9.662;2023-02-01T00:14:58;11.83;;;2.40;;
11646;SDS011;5880;52.342;9.662;2023-02-01T00:17:24;9.30;;;2.33;;
11646;SDS011;5880;52.342;9.662;2023-02-01T00:19:50;7.07;;;2.30;;
11646;SDS011;5880;52.342;9.662;2023-02-01T00:22:16;6.07;;;2.43;;
11646;SDS011;5880;52.342;9.662;2023-02-01T00:24:41;9.77;;;2.40;;
11646;SDS011;5880;52.342;9.662;2023-02-01T00:27:07;9.00;;;2.17;;
11646;SDS011;5880;52.342;9.662;2023-02-01T00:29:33;10.97;;;2.63;;
11646;SDS011;5880;52.342;9.662;2023-02-01T00:31:58;7.07;;;2.53;;
11646;SDS011;5880;52.342;9.662;2023-02-01T00:34:24;9.70;;;2.73;;
11646;SDS011;5880;52.342;9.662;2023-02-01T00:36:50;7.30;;;2.50;;
11646;SDS011;5880;52.342;9.662;2023-02-01T00:39:15;8.77;;;2.43;;
11646;SDS011;5880;52.342;9.662;2023-02-01T00:41:42;11.27;;;2.73;;
11646;SDS011;5880;52.342;9.662;2023-02-01T00:44:08;8.27;;;2.37;;
11646;SDS011;5880;52.342;9.662;2023-02-01T00:46:33;9.63;;;2.53;;
11646;SDS011;5880;52.342;9.662;2023-02-01T00:48:59;8.70;;;2.73;;
11646;SDS011;5880;52.342;9.662;2023-02-01T00:51:26;9.00;;;2.77;;
11646;SDS011;5880;52.342;9.662;2023-02-01T00:53:55;11.10;;;2.60;;
11646;SDS011;5880;52.342;9.662;2023-02-01T00:56:21;8.50;;;1.97;;
11646;SDS011;5880;52.342;9.662;2023-02-01T00:58:47;10.20;;;2.83;;
11646;SDS011;5880;52.342;9.662;2023-02-01T01:01:14;9.30;;;2.67;;
11646;SDS011;5880;52.342;9.662;2023-02-01T01:03:47;6.07;;;2.03;;
11646;SDS011;5880;52.342;9.662;2023-02-01T01:06:22;6.33;;;2.23;;
11646;SDS011;5880;52.342;9.662;2023-02-01T01:08:55;7.67;;;2.17;;
11646;SDS011;5880;52.342;9.662;2023-02-01T01:11:24;9.83;;;2.40;;
11646;SDS011;5880;52.342;9.662;2023-02-01T01:13:56;10.50;;;2.63;;
11646;SDS011;5880;52.342;9.662;2023-02-01T01:16:23;10.40;;;2.50;;
11646;SDS011;5880;52.342;9.662;2023-02-01T01:18:51;6.70;;;2.27;;
11646;SDS011;5880;52.342;9.662;2023-02-01T01:21:18;9.37;;;2.50;;
11646;SDS011;5880;52.342;9.662;2023-02-01T01:23:44;12.80;;;3.30;;
11646;SDS011;5880;52.342;9.662;2023-02-01T01:26:12;9.37;;;2.60;;
11646;SDS011;5880;52.342;9.662;2023-02-01T01:28:44;11.23;;;2.73;;
11646;SDS011;5880;52.342;9.662;2023-02-01T01:31:11;10.73;;;2.83;;
11646;SDS011;5880;52.342;9.662;2023-02-01T01:33:39;10.93;;;2.70;;
11646;SDS011;5880;52.342;9.662;2023-02-01T01:36:05;9.40;;;2.47;;
11646;SDS011;5880;52.342;9.662;2023-02-01T01:38:40;6.60;;;1.90;;
11646;SDS011;5880;52.342;9.662;2023-02-01T01:41:07;7.17;;;2.40;;
11646;SDS011;5880;52.342;9.662;2023-02-01T01:43:55;10.47;;;2.47;;
11646;SDS011;5880;52.342;9.662;2023-02-01T01:46:34;7.93;;;2.40;;
11646;SDS011;5880;52.342;9.662;2023-02-01T01:49:09;7.80;;;2.40;;
11646;SDS011;5880;52.342;9.662;2023-02-01T01:51:45;12.83;;;3.33;;
11646;SDS011;5880;52.342;9.662;2023-02-01T01:54:25;8.87;;;2.90;;
11646;SDS011;5880;52.342;9.662;2023-02-01T01:57:01;10.63;;;2.70;;
11646;SDS011;5880;52.342;9.662;2023-02-01T01:59:49;10.63;;;2.57;;
11646;SDS011;5880;52.342;9.662;2023-02-01T02:02:40;10.73;;;2.77;;
11646;SDS011;5880;52.342;9.662;2023-02-01T02:05:11;11.90;;;2.80;;
11646;SDS011;5880;52.342;9.662;2023-02-01T02:07:42;13.17;;;2.67;;
11646;SDS011;5880;52.342;9.662;2023-02-01T02:10:14;9.23;;;2.80;;
11646;SDS011;5880;52.342;9.662;2023-02-01T02:12:42;8.73;;;2.67;;
11646;SDS011;5880;52.342;9.662;2023-02-01T02:15:10;9.93;;;2.63;;
11646;SDS011;5880;52.342;9.662;2023-02-01T02:17:56;10.70;;;2.80;;
11646;SDS011;5880;52.342;9.662;2023-02-01T02:30:16;10.57;;;3.33;;
11646;SDS011;5880;52.342;9.662;2023-02-01T02:39:18;10.60;;;2.73;;
11646;SDS011;5880;52.342;9.662;2023-02-01T02:42:11;10.50;;;3.10;;
11646;SDS011;5880;52.342;9.662;2023-02-01T02:45:12;13.77;;;2.90;;
11646;SDS011;5880;52.342;9.662;2023-02-01T02:48:17;10.90;;;2.90;;
11646;SDS011;5880;52.342;9.662;2023-02-01T02:51:07;10.67;;;2.50;;
11646;SDS011;5880;52.342;9.662;2023-02-01T02:54:05;10.53;;;2.83;;
11646;SDS011;5880;52.342;9.662;2023-02-01T02:56:56;9.07;;;2.57;;
11646;SDS011;5880;52.342;9.662;2023-02-01T02:59:45;9.37;;;2.63;;
11646;SDS011;5880;52.342;9.662;2023-02-01T03:02:32;7.80;;;2.20;;
11646;SDS011;5880;52.342;9.662;2023-02-01T03:05:18;9.63;;;2.40;;
11646;SDS011;5880;52.342;9.662;2023-02-01T03:16:30;7.83;;;2.33;;
11646;SDS011;5880;52.342;9.662;2023-02-01T03:21:58;11.40;;;2.67;;
11646;SDS011;5880;52.342;9.662;2023-02-01T03:24:32;10.63;;;2.70;;
11646;SDS011;5880;52.342;9.662;2023-02-01T03:30:02;10.30;;;2.80;;
11646;SDS011;5880;52.342;9.662;2023-02-01T03:32:51;7.20;;;2.47;;
11646;SDS011;5880;52.342;9.662;2023-02-01T03:35:36;10.93;;;2.73;;
11646;SDS011;5880;52.342;9.662;2023-02-01T03:41:16;9.07;;;2.80;;
11646;SDS011;5880;52.342;9.662;2023-02-01T03:46:57;9.53;;;2.90;;
11646;SDS011;5880;52.342;9.662;2023-02-01T03:49:33;8.33;;;2.53;;
11646;SDS011;5880;52.342;9.662;2023-02-01T03:52:12;8.50;;;2.70;;
11646;SDS011;5880;52.342;9.662;2023-02-01T03:54:43;10.40;;;2.20;;
11646;SDS011;5880;52.342;9.662;2023-02-01T03:57:12;7.33;;;2.80;;
11646;SDS011;5880;52.342;9.662;2023-02-01T03:59:46;9.80;;;3.00;;
11646;SDS011;5880;52.342;9.662;2023-02-01T04:02:11;7.37;;;2.37;;
11646;SDS011;5880;52.342;9.662;2023-02-01T04:04:37;10.03;;;2.93;;
11646;SDS011;5880;52.342;9.662;2023-02-01T04:07:03;6.47;;;2.20;;
11646;SDS011;5880;52.342;9.662;2023-02-01T04:09:29;10.70;;;3.07;;
11646;SDS011;5880;52.342;9.662;2023-02-01T04:11:55;9.03;;;3.43;;
11646;SDS011;5880;52.342;9.662;2023-02-01T04:14:20;9.43;;;2.70;;
11646;SDS011;5880;52.342;9.662;2023-02-01T04:16:46;9.10;;;2.93;;
11646;SDS011;5880;52.342;9.662;2023-02-01T04:19:12;7.83;;;2.43;;
11646;SDS011;5880;52.342;9.662;2023-02-01T04:21:37;11.43;;;2.90;;
11646;SDS011;5880;52.342;9.662;2023-02-01T04:24:03;10.57;;;2.73;;
11646;SDS011;5880;52.342;9.662;2023-02-01T04:26:29;8.70;;;2.77;;
11646;SDS011;5880;52.342;9.662;2023-02-01T04:28:55;10.47;;;2.60;;
11646;SDS011;5880;52.342;9.662;2023-02-01T04:31:21;7.97;;;3.07;;
11646;SDS011;5880;52.342;9.662;2023-02-01T04:33:52;10.43;;;2.60;;
11646;SDS011;5880;52.342;9.662;2023-02-01T04:36:20;8.87;;;2.70;;
11646;SDS011;5880;52.342;9.662;2023-02-01T04:38:47;8.80;;;3.30;;
11646;SDS011;5880;52.342;9.662;2023-02-01T04:41:14;8.00;;;2.73;;
11646;SDS011;5880;52.342;9.662;2023-02-01T04:43:43;8.50;;;3.00;;
11646;SDS011;5880;52.342;9.662;2023-02-01T04:46:11;11.40;;;3.50;;
11646;SDS011;5880;52.342;9.662;2023-02-01T04:48:36;8.93;;;2.93;;
11646;SDS011;5880;52.342;9.662;2023-02-01T04:51:02;8.30;;;2.53;;
11646;SDS011;5880;52.342;9.662;2023-02-01T04:53:29;9.77;;;3.00;;
11646;SDS011;5880;52.342;9.662;2023-02-01T04:55:54;10.03;;;3.03;;
11646;SDS011;5880;52.342;9.662;2023-02-01T04:58:21;11.43;;;2.90;;
11646;SDS011;5880;52.342;9.662;2023-02-01T05:00:46;8.53;;;3.17;;
11646;SDS011;5880;52.342;9.662;2023-02-01T05:03:12;8.20;;;2.70;;
11646;SDS011;5880;52.342;9.662;2023-02-01T05:05:38;8.70;;;3.00;;
11646;SDS011;5880;52.342;9.662;2023-02-01T05:08:04;8.37;;;2.73;;
11646;SDS011;5880;52.342;9.662;2023-02-01T05:10:29;6.33;;;2.33;;
11646;SDS011;5880;52.342;9.662;2023-02-01T05:12:55;7.17;;;2.53;;
11646;SDS011;5880;52.342;9.662;2023-02-01T05:15:39;9.37;;;2.60;;
11646;SDS011;5880;52.342;9.662;2023-02-01T05:18:05;10.87;;;3.03;;
11646;SDS011;5880;52.342;9.662;2023-02-01T05:20:30;5.87;;;2.53;;
11646;SDS011;5880;52.342;9.662;2023-02-01T05:22:56;7.23;;;2.57;;
11646;SDS011;5880;52.342;9.662;2023-02-01T05:25:22;8.83;;;2.60;;
11646;SDS011;5880;52.342;9.662;2023-02-01T05:27:48;12.00;;;3.10;;
11646;SDS011;5880;52.342;9.662;2023-02-01T05:30:13;8.57;;;2.80;;
11646;SDS011;5880;52.342;9.662;2023-02-01T05:32:39;8.10;;;2.70;;
11646;SDS011;5880;52.342;9.662;2023-02-01T05:35:05;9.20;;;2.90;;
11646;SDS011;5880;52.342;9.662;2023-02-01T05:37:31;6.33;;;2.60;;
11646;SDS011;5880;52.342;9.662;2023-02-01T05:39:57;8.73;;;3.17;;
11646;SDS011;5880;52.342;9.662;2023-02-01T05:42:23;7.80;;;2.50;;
11646;SDS011;5880;52.342;9.662;2023-02-01T05:44:48;8.90;;;2.40;;
11646;SDS011;5880;52.342;9.662;2023-02-01T05:47:14;8.53;;;2.70;;
11646;SDS011;5880;52.342;9.662;2023-02-01T05:49:39;6.87;;;3.27;;
11646;SDS011;5880;52.342;9.662;2023-02-01T05:52:05;9.07;;;2.83;;
11646;SDS011;5880;52.342;9.662;2023-02-01T05:54:31;7.10;;;2.60;;
11646;SDS011;5880;52.342;9.662;2023-02-01T05:56:57;12.03;;;3.27;;
11646;SDS011;5880;52.342;9.662;2023-02-01T05:59:23;8.13;;;2.50;;
11646;SDS011;5880;52.342;9.662;2023-02-01T06:01:48;7.90;;;2.87;;
11646;SDS011;5880;52.342;9.662;2023-02-01T06:04:14;8.03;;;2.70;;
11646;SDS011;5880;52.342;9.662;2023-02-01T06:06:40;5.97;;;2.27;;
11646;SDS011;5880;52.342;9.662;2023-02-01T06:09:05;7.90;;;2.77;;
11646;SDS011;5880;52.342;9.662;2023-02-01T06:11:31;9.33;;;2.70;;
11646;SDS011;5880;52.342;9.662;2023-02-01T06:13:57;11.17;;;2.80;;
11646;SDS011;5880;52.342;9.662;2023-02-01T06:16:22;9.13;;;2.90;;
11646;SDS011;5880;52.342;9.662;2023-02-01T06:18:48;7.47;;;2.80;;
11646;SDS011;5880;52.342;9.662;2023-02-01T06:21:14;6.93;;;2.47;;
11646;SDS011;5880;52.342;9.662;2023-02-01T06:23:48;6.20;;;2.50;;
11646;SDS011;5880;52.342;9.662;2023-02-01T06:26:18;9.83;;;2.97;;
11646;SDS011;5880;52.342;9.662;2023-02-01T06:28:44;6.30;;;2.50;;
11646;SDS011;5880;52.342;9.662;2023-02-01T06:31:10;5.97;;;2.43;;
11646;SDS011;5880;52.342;9.662;2023-02-01T06:33:36;6.17;;;2.20;;
11646;SDS011;5880;52.342;9.662;2023-02-01T06:36:04;9.57;;;2.37;;
11646;SDS011;5880;52.342;9.662;2023-02-01T06:38:32;6.57;;;2.57;;
11646;SDS011;5880;52.342;9.662;2023-02-01T06:40:59;4.83;;;2.53;;
11646;SDS011;5880;52.342;9.662;2023-02-01T06:43:26;7.53;;;2.23;;
11646;SDS011;5880;52.342;9.662;2023-02-01T06:45:52;7.37;;;2.43;;
11646;SDS011;5880;52.342;9.662;2023-02-01T06:48:18;6.07;;;2.27;;
11646;SDS011;5880;52.342;9.662;2023-02-01T06:50:44;6.00;;;2.00;;
11646;SDS011;5880;52.342;9.662;2023-02-01T06:53:10;6.33;;;2.37;;
11646;SDS011;5880;52.342;9.662;2023-02-01T06:55:35;7.33;;;2.60;;
11646;SDS011;5880;52.342;9.662;2023-02-01T06:58:01;4.60;;;2.00;;
11646;SDS011;5880;52.342;9.662;2023-02-01T07:00:28;5.33;;;2.10;;
11646;SDS011;5880;52.342;9.662;2023-02-01T07:02:54;7.00;;;2.33;;
11646;SDS011;5880;52.342;9.662;2023-02-01T07:05:20;7.40;;;2.50;;
11646;SDS011;5880;52.342;9.662;2023-02-01T07:07:46;6.43;;;2.50;;
11646;SDS011;5880;52.342;9.662;2023-02-01T07:10:12;5.43;;;2.77;;
11646;SDS011;5880;52.342;9.662;2023-02-01T07:12:38;5.93;;;2.30;;
11646;SDS011;5880;52.342;9.662;2023-02-01T07:15:04;8.97;;;2.20;;
11646;SDS011;5880;52.342;9.662;2023-02-01T07:17:31;6.17;;;2.20;;
11646;SDS011;5880;52.342;9.662;2023-02-01T07:19:57;7.17;;;2.60;;
11646;SDS011;5880;52.342;9.662;2023-02-01T07:22:26;5.80;;;2.73;;
11646;SDS011;5880;52.342;9.662;2023-02-01T07:24:53;10.10;;;2.73;;
11646;SDS011;5880;52.342;9.662;2023-02-01T07:27:18;10.17;;;3.00;;
11646;SDS011;5880;52.342;9.662;2023-02-01T07:29:44;6.97;;;2.40;;
11646;SDS011;5880;52.342;9.662;2023-02-01T07:32:10;7.00;;;2.30;;
11646;SDS011;5880;52.342;9.662;2023-02-01T07:34:36;11.30;;;3.10;;
11646;SDS011;5880;52.342;9.662;2023-02-01T07:37:01;7.77;;;2.50;;
11646;SDS011;5880;52.342;9.662;2023-02-01T07:39:27;7.83;;;2.53;;
11646;SDS011;5880;52.342;9.662;2023-02-01T07:41:53;8.93;;;2.90;;
11646;SDS011;5880;52.342;9.662;2023-02-01T07:44:19;12.17;;;3.40;;
11646;SDS011;5880;52.342;9.662;2023-02-01T07:46:48;8.00;;;2.63;;
11646;SDS011;5880;52.342;9.662;2023-02-01T07:49:14;7.73;;;2.53;;
11646;SDS011;5880;52.342;9.662;2023-02-01T07:51:42;10.10;;;2.73;;
11646;SDS011;5880;52.342;9.662;2023-02-01T07:54:08;5.53;;;2.30;;
11646;SDS011;5880;52.342;9.662;2023-02-01T07:56:33;9.27;;;2.43;;
11646;SDS011;5880;52.342;9.662;2023-02-01T07:58:59;8.57;;;2.77;;
11646;SDS011;5880;52.342;9.662;2023-02-01T08:01:25;8.20;;;2.43;;
11646;SDS011;5880;52.342;9.662;2023-02-01T08:03:57;6.03;;;1.80;;
11646;SDS011;5880;52.342;9.662;2023-02-01T08:06:28;7.37;;;2.70;;
11646;SDS011;5880;52.342;9.662;2023-02-01T08:08:58;10.50;;;2.57;;
11646;SDS011;5880;52.342;9.662;2023-02-01T08:11:24;8.43;;;2.23;;
11646;SDS011;5880;52.342;9.662;2023-02-01T08:13:51;8.90;;;2.17;;
11646;SDS011;5880;52.342;9.662;2023-02-01T08:16:18;9.93;;;2.60;;
11646;SDS011;5880;52.342;9.662;2023-02-01T08:18:45;7.87;;;2.27;;
11646;SDS011;5880;52.342;9.662;2023-02-01T08:21:18;9.03;;;2.77;;
11646;SDS011;5880;52.342;9.662;2023-02-01T08:23:47;8.53;;;2.40;;
11646;SDS011;5880;52.342;9.662;2023-02-01T08:26:21;5.93;;;2.27;;
11646;SDS011;5880;52.342;9.662;2023-02-01T08:28:53;8.00;;;2.20;;
11646;SDS011;5880;52.342;9.662;2023-02-01T08:31:23;9.87;;;2.80;;
11646;SDS011;5880;52.342;9.662;2023-02-01T08:33:52;12.40;;;2.70;;
11646;SDS011;5880;52.342;9.662;2023-02-01T08:36:21;9.37;;;2.77;;
11646;SDS011;5880;52.342;9.662;2023-02-01T08:38:48;7.43;;;2.33;;
11646;SDS011;5880;52.342;9.662;2023-02-01T08:41:18;10.27;;;3.50;;
11646;SDS011;5880;52.342;9.662;2023-02-01T08:43:47;9.97;;;2.90;;
11646;SDS011;5880;52.342;9.662;2023-02-01T08:46:12;8.03;;;2.50;;
11646;SDS011;5880;52.342;9.662;2023-02-01T08:48:39;6.83;;;2.60;;
11646;SDS011;5880;52.342;9.662;2023-02-01T08:51:06;9.10;;;2.57;;
11646;SDS011;5880;52.342;9.662;2023-02-01T08:53:37;6.27;;;2.57;;
11646;SDS011;5880;52.342;9.662;2023-02-01T08:56:09;8.60;;;2.40;;
11646;SDS011;5880;52.342;9.662;2023-02-01T08:58:37;9.37;;;2.60;;
11646;SDS011;5880;52.342;9.662;2023-02-01T09:01:03;9.57;;;2.30;;
11646;SDS011;5880;52.342;9.662;2023-02-01T09:03:35;12.43;;;2.80;;
11646;SDS011;5880;52.342;9.662;2023-02-01T09:06:04;9.27;;;2.53;;
11646;SDS011;5880;52.342;9.662;2023-02-01T09:08:34;8.43;;;2.57;;
11646;SDS011;5880;52.342;9.662;2023-02-01T09:11:01;8.37;;;2.40;;
11646;SDS011;5880;52.342;9.662;2023-02-01T09:13:30;7.70;;;2.30;;
11646;SDS011;5880;52.342;9.662;2023-02-01T09:15:58;7.30;;;2.30;;
11646;SDS011;5880;52.342;9.662;2023-02-01T09:18:24;10.13;;;3.00;;
11646;SDS011;5880;52.342;9.662;2023-02-01T09:20:51;9.33;;;2.43;;
11646;SDS011;5880;52.342;9.662;2023-02-01T09:23:16;7.20;;;2.20;;
11646;SDS011;5880;52.342;9.662;2023-02-01T09:25:42;6.20;;;2.10;;
11646;SDS011;5880;52.342;9.662;2023-02-01T09:28:08;6.50;;;2.30;;
11646;SDS011;5880;52.342;9.662;2023-02-01T09:30:34;8.60;;;2.30;;
11646;SDS011;5880;52.342;9.662;2023-02-01T09:33:01;5.83;;;2.20;;
11646;SDS011;5880;52.342;9.662;2023-02-01T09:35:27;6.27;;;2.43;;
11646;SDS011;5880;52.342;9.662;2023-02-01T09:37:53;7.50;;;2.53;;
11646;SDS011;5880;52.342;9.662;2023-02-01T09:40:20;7.70;;;2.43;;
11646;SDS011;5880;52.342;9.662;2023-02-01T09:42:56;6.97;;;2.23;;
11646;SDS011;5880;52.342;9.662;2023-02-01T09:48:47;7.23;;;2.43;;
11646;SDS011;5880;52.342;9.662;2023-02-01T09:51:20;8.73;;;2.60;;
11646;SDS011;5880;52.342;9.662;2023-02-01T09:53:58;7.87;;;2.40;;
11646;SDS011;5880;52.342;9.662;2023-02-01T09:56:56;9.03;;;3.10;;
11646;SDS011;5880;52.342;9.662;2023-02-01T09:59:43;9.50;;;2.37;;
11646;SDS011;5880;52.342;9.662;2023-02-01T10:02:24;5.67;;;2.27;;
11646;SDS011;5880;52.342;9.662;2023-02-01T10:04:56;7.57;;;2.47;;
11646;SDS011;5880;52.342;9.662;2023-02-01T10:07:28;4.20;;;2.17;;
11646;SDS011;5880;52.342;9.662;2023-02-01T10:13:06;5.83;;;2.10;;
11646;SDS011;5880;52.342;9.662;2023-02-01T10:22:10;8.47;;;2.73;;
11646;SDS011;5880;52.342;9.662;2023-02-01T10:25:04;7.77;;;2.50;;
11646;SDS011;5880;52.342;9.662;2023-02-01T10:27:51;6.53;;;2.57;;
11646;SDS011;5880;52.342;9.662;2023-02-01T10:30:25;5.63;;;1.90;;
11646;SDS011;5880;52.342;9.662;2023-02-01T10:33:16;6.77;;;2.50;;
11646;SDS011;5880;52.342;9.662;2023-02-01T10:35:52;8.83;;;2.57;;
11646;SDS011;5880;52.342;9.662;2023-02-01T10:38:28;6.20;;;2.00;;
11646;SDS011;5880;52.342;9.662;2023-02-01T10:40:59;7.77;;;2.40;;
11646;SDS011;5880;52.342;9.662;2023-02-01T10:43:34;7.87;;;2.63;;
11646;SDS011;5880;52.342;9.662;2023-02-01T10:46:00;4.57;;;2.30;;
11646;SDS011;5880;52.342;9.662;2023-02-01T10:48:26;7.07;;;2.20;;
11646;SDS011;5880;52.342;9.662;2023-02-01T10:50:57;6.47;;;2.53;;
11646;SDS011;5880;52.342;9.662;2023-02-01T10:56:11;6.03;;;1.83;;
11646;SDS011;5880;52.342;9.662;2023-02-01T10:58:45;9.10;;;2.20;;
11646;SDS011;5880;52.342;9.662;2023-02-01T11:01:16;7.67;;;2.30;;
11646;SDS011;5880;52.342;9.662;2023-02-01T11:06:35;8.17;;;2.33;;
11646;SDS011;5880;52.342;9.662;2023-02-01T11:11:33;6.93;;;2.37;;
11646;SDS011;5880;52.342;9.662;2023-02-01T11:14:37;6.70;;;2.37;;
11646;SDS011;5880;52.342;9.662;2023-02-01T11:19:46;5.03;;;1.90;;
11646;SDS011;5880;52.342;9.662;2023-02-01T11:22:22;9.30;;;2.20;;
11646;SDS011;5880;52.342;9.662;2023-02-01T11:24:52;7.17;;;2.23;;
11646;SDS011;5880;52.342;9.662;2023-02-01T11:27:20;9.37;;;2.50;;
11646;SDS011;5880;52.342;9.662;2023-02-01T11:29:50;8.13;;;2.70;;
11646;SDS011;5880;52.342;9.662;2023-02-01T11:32:22;5.57;;;2.20;;
11646;SDS011;5880;52.342;9.662;2023-02-01T11:35:11;7.07;;;1.90;;
11646;SDS011;5880;52.342;9.662;2023-02-01T11:37:44;6.87;;;2.17;;
11646;SDS011;5880;52.342;9.662;2023-02-01T11:42:53;7.67;;;2.10;;
11646;SDS011;5880;52.342;9.662;2023-02-01T11:45:28;7.17;;;2.40;;
11646;SDS011;5880;52.342;9.662;2023-02-01T11:47:58;6.93;;;2.20;;
11646;SDS011;5880;52.342;9.662;2023-02-01T11:50:28;5.97;;;1.97;;
11646;SDS011;5880;52.342;9.662;2023-02-01T11:53:41;6.93;;;2.17;;
11646;SDS011;5880;52.342;9.662;2023-02-01T11:56:32;6.80;;;1.83;;
11646;SDS011;5880;52.342;9.662;2023-02-01T12:02:02;6.23;;;2.30;;
11646;SDS011;5880;52.342;9.662;2023-02-01T12:07:20;5.83;;;2.40;;
11646;SDS011;5880;52.342;9.662;2023-02-01T12:10:17;5.80;;;1.97;;
11646;SDS011;5880;52.342;9.662;2023-02-01T12:13:09;7.90;;;2.47;;
11646;SDS011;5880;52.342;9.662;2023-02-01T12:16:00;5.00;;;2.13;;
11646;SDS011;5880;52.342;9.662;2023-02-01T12:21:46;8.47;;;2.60;;
11646;SDS011;5880;52.342;9.662;2023-02-01T12:24:43;8.53;;;2.33;;
11646;SDS011;5880;52.342;9.662;2023-02-01T12:33:17;5.03;;;1.90;;
11646;SDS011;5880;52.342;9.662;2023-02-01T12:44:49;5.67;;;2.00;;
11646;SDS011;5880;52.342;9.662;2023-02-01T12:47:33;7.70;;;2.27;;
11646;SDS011;5880;52.342;9.662;2023-02-01T12:50:29;5.83;;;2.10;;
11646;SDS011;5880;52.342;9.662;2023-02-01T12:53:27;7.50;;;2.13;;
11646;SDS011;5880;52.342;9.662;2023-02-01T12:56:12;5.87;;;2.03;;
11646;SDS011;5880;52.342;9.662;2023-02-01T12:58:53;6.23;;;1.80;;
11646;SDS011;5880;52.342;9.662;2023-02-01T13:01:28;5.27;;;1.90;;
11646;SDS011;5880;52.342;9.662;2023-02-01T13:04:17;6.17;;;1.70;;
11646;SDS011;5880;52.342;9.662;2023-02-01T13:09:38;2.60;;;1.27;;
11646;SDS011;5880;52.342;9.662;2023-02-01T13:15:13;4.23;;;1.50;;
11646;SDS011;5880;52.342;9.662;2023-02-01T13:18:06;5.20;;;1.60;;
11646;SDS011;5880;52.342;9.662;2023-02-01T13:23:39;3.03;;;1.10;;
11646;SDS011;5880;52.342;9.662;2023-02-01T13:26:10;3.23;;;1.20;;
11646;SDS011;5880;52.342;9.662;2023-02-01T13:28:46;1.73;;;1.23;;
11646;SDS011;5880;52.342;9.662;2023-02-01T13:37:39;3.73;;;1.50;;
11646;SDS011;5880;52.342;9.662;2023-02-01T13:40:30;1.57;;;0.80;;
11646;SDS011;5880;52.342;9.662;2023-02-01T13:43:15;0.53;;;0.53;;
11646;SDS011;5880;52.342;9.662;2023-02-01T13:45:53;1.80;;;0.40;;
11646;SDS011;5880;52.342;9.662;2023-02-01T13:48:32;0.60;;;0.50;;
11646;SDS011;5880;52.342;9.662;2023-02-01T13:51:28;0.30;;;0.30;;
11646;SDS011;5880;52.342;9.662;2023-02-01T13:54:00;0.40;;;0.40;;
11646;SDS011;5880;52.342;9.662;2023-02-01T13:56:26;0.83;;;0.30;;
11646;SDS011;5880;52.342;9.662;2023-02-01T13:58:52;0.60;;;0.30;;
11646;SDS011;5880;52.342;9.662;2023-02-01T14:03:54;0.60;;;0.30;;
11646;SDS011;5880;52.342;9.662;2023-02-01T14:19:21;0.53;;;0.20;;
11646;SDS011;5880;52.342;9.662;2023-02-01T14:21:53;1.03;;;0.23;;
11646;SDS011;5880;52.342;9.662;2023-02-01T14:24:26;0.10;;;0.10;;
11646;SDS011;5880;52.342;9.662;2023-02-01T14:26:56;0.67;;;0.30;;
11646;SDS011;5880;52.342;9.662;2023-02-01T14:29:40;0.40;;;0.23;;
11646;SDS011;5880;52.342;9.662;2023-02-01T14:32:22;0.60;;;0.30;;
11646;SDS011;5880;52.342;9.662;2023-02-01T14:34:56;1.03;;;0.47;;
11646;SDS011;5880;52.342;9.662;2023-02-01T14:37:28;0.87;;;0.30;;
11646;SDS011;5880;52.342;9.662;2023-02-01T14:42:34;0.73;;;0.30;;
11646;SDS011;5880;52.342;9.662;2023-02-01T14:47:52;0.57;;;0.30;;
11646;SDS011;5880;52.342;9.662;2023-02-01T14:53:10;0.63;;;0.40;;
11646;SDS011;5880;52.342;9.662;2023-02-01T14:55:50;1.33;;;0.57;;
11646;SDS011;5880;52.342;9.662;2023-02-01T14:58:31;2.47;;;0.53;;
11646;SDS011;5880;52.342;9.662;2023-02-01T15:01:23;1.50;;;0.50;;
11646;SDS011;5880;52.342;9.662;2023-02-01T15:04:03;1.77;;;0.60;;
11646;SDS011;5880;52.342;9.662;2023-02-01T15:09:20;1.70;;;0.60;;
11646;SDS011;5880;52.342;9.662;2023-02-01T15:14:43;3.07;;;0.60;;
11646;SDS011;5880;52.342;9.662;2023-02-01T15:17:28;1.33;;;0.40;;
11646;SDS011;5880;52.342;9.662;2023-02-01T15:20:20;1.20;;;0.70;;
11646;SDS011;5880;52.342;9.662;2023-02-01T15:23:00;0.87;;;0.50;;
11646;SDS011;5880;52.342;9.662;2023-02-01T15:25:34;1.67;;;0.60;;
11646;SDS011;5880;52.342;9.662;2023-02-01T15:28:03;1.73;;;0.70;;
11646;SDS011;5880;52.342;9.662;2023-02-01T15:30:34;2.13;;;0.73;;
11646;SDS011;5880;52.342;9.662;2023-02-01T15:35:41;1.30;;;0.87;;
11646;SDS011;5880;52.342;9.662;2023-02-01T15:38:19;1.37;;;0.60;;
11646;SDS011;5880;52.342;9.662;2023-02-01T15:43:49;2.43;;;0.97;;
11646;SDS011;5880;52.342;9.662;2023-02-01T15:46:38;1.90;;;0.83;;
11646;SDS011;5880;52.342;9.662;2023-02-01T15:49:17;2.53;;;0.97;;
11646;SDS011;5880;52.342;9.662;2023-02-01T15:51:52;2.33;;;1.07;;
11646;SDS011;5880;52.342;9.662;2023-02-01T15:54:22;2.17;;;1.10;;
11646;SDS011;5880;52.342;9.662;2023-02-01T15:56:56;3.60;;;1.27;;
11646;SDS011;5880;52.342;9.662;2023-02-01T15:59:36;4.47;;;1.23;;
11646;SDS011;5880;52.342;9.662;2023-02-01T16:02:28;2.50;;;1.00;;
11646;SDS011;5880;52.342;9.662;2023-02-01T16:05:29;2.53;;;1.00;;
11646;SDS011;5880;52.342;9.662;2023-02-01T16:08:13;4.63;;;1.30;;
11646;SDS011;5880;52.342;9.662;2023-02-01T16:10:48;5.77;;;1.33;;
11646;SDS011;5880;52.342;9.662;2023-02-01T16:13:24;4.27;;;1.23;;
11646;SDS011;5880;52.342;9.662;2023-02-01T16:15:49;5.40;;;1.50;;
11646;SDS011;5880;52.342;9.662;2023-02-01T16:18:15;6.07;;;1.40;;
11646;SDS011;5880;52.342;9.662;2023-02-01T16:20:41;3.17;;;1.33;;
11646;SDS011;5880;52.342;9.662;2023-02-01T16:23:07;4.73;;;1.47;;
11646;SDS011;5880;52.342;9.662;2023-02-01T16:25:35;4.97;;;1.30;;
11646;SDS011;5880;52.342;9.662;2023-02-01T16:28:02;3.63;;;1.43;;
11646;SDS011;5880;52.342;9.662;2023-02-01T16:30:29;5.27;;;1.37;;
11646;SDS011;5880;52.342;9.662;2023-02-01T16:32:57;5.13;;;1.40;;
11646;SDS011;5880;52.342;9.662;2023-02-01T16:35:32;4.70;;;1.70;;
11646;SDS011;5880;52.342;9.662;2023-02-01T16:38:02;4.87;;;1.60;;
11646;SDS011;5880;52.342;9.662;2023-02-01T16:40:38;5.93;;;1.40;;
11646;SDS011;5880;52.342;9.662;2023-02-01T16:45:46;6.70;;;2.67;;
11646;SDS011;5880;52.342;9.662;2023-02-01T16:48:25;9.03;;;3.00;;
11646;SDS011;5880;52.342;9.662;2023-02-01T16:50:58;13.97;;;6.33;;
11646;SDS011;5880;52.342;9.662;2023-02-01T16:53:28;10.00;;;4.17;;
11646;SDS011;5880;52.342;9.662;2023-02-01T16:55:56;6.67;;;3.07;;
11646;SDS011;5880;52.342;9.662;2023-02-01T16:58:22;8.47;;;2.77;;
11646;SDS011;5880;52.342;9.662;2023-02-01T17:00:50;8.67;;;2.10;;
11646;SDS011;5880;52.342;9.662;2023-02-01T17:03:17;5.10;;;1.83;;
11646;SDS011;5880;52.342;9.662;2023-02-01T17:05:47;5.20;;;2.20;;
11646;SDS011;5880;52.342;9.662;2023-02-01T17:08:23;8.00;;;2.00;;
11646;SDS011;5880;52.342;9.662;2023-02-01T17:10:59;5.47;;;2.00;;
11646;SDS011;5880;52.342;9.662;2023-02-01T17:13:25;9.30;;;2.77;;
11646;SDS011;5880;52.342;9.662;2023-02-01T17:15:52;8.10;;;2.50;;
11646;SDS011;5880;52.342;9.662;2023-02-01T17:18:27;5.97;;;1.70;;
11646;SDS011;5880;52.342;9.662;2023-02-01T17:20:59;9.43;;;2.33;;
11646;SDS011;5880;52.342;9.662;2023-02-01T17:23:28;6.90;;;2.00;;
11646;SDS011;5880;52.342;9.662;2023-02-01T17:25:55;5.80;;;1.70;;
11646;SDS011;5880;52.342;9.662;2023-02-01T17:28:22;4.73;;;1.73;;
11646;SDS011;5880;52.342;9.662;2023-02-01T17:30:48;3.57;;;1.77;;
11646;SDS011;5880;52.342;9.662;2023-02-01T17:33:19;10.13;;;2.70;;
11646;SDS011;5880;52.342;9.662;2023-02-01T17:35:51;4.37;;;2.13;;
11646;SDS011;5880;52.342;9.662;2023-02-01T17:38:19;6.07;;;2.33;;
11646;SDS011;5880;52.342;9.662;2023-02-01T17:40:45;6.43;;;1.87;;
11646;SDS011;5880;52.342;9.662;2023-02-01T17:43:12;6.27;;;2.10;;
11646;SDS011;5880;52.342;9.662;2023-02-01T17:45:44;6.70;;;2.10;;
11646;SDS011;5880;52.342;9.662;2023-02-01T17:48:17;7.13;;;1.77;;